Terminal Aerodrome Forecast
Issued by NWS Paducah, KY

Home | Current Version | Previous Version | Graphics & Text | Print | Product List | Glossary On
Versions: 1 2 3 4 5 6 7 8 9 10 11 12 13 14 15 16 17 18 19 20 21 22 23 24
000
FTUS43 KPAH 280500
TAFEVV
TAF
KEVV 280540Z 2806/2906 06005KT P6SM BKN015
      TEMPO 2807/2809 SCT015
     FM280900 VRB03KT P6SM SCT020
     FM281500 15008KT P6SM SCT250=

USA.gov is the U.S. government's official web portal to all federal, state and local government web resources and services.